sensor_id;sensor_type;location;lat;lon;timestamp;P1;durP1;ratioP1;P2;durP2;ratioP2
34920;SDS011;21128;50.016;20.002;2022-12-29T00:01:18;5.27;;;3.70;;
34920;SDS011;21128;50.016;20.002;2022-12-29T00:04:04;7.77;;;3.67;;
34920;SDS011;21128;50.016;20.002;2022-12-29T00:06:51;6.00;;;3.83;;
34920;SDS011;21128;50.016;20.002;2022-12-29T00:09:51;8.27;;;4.50;;
34920;SDS011;21128;50.016;20.002;2022-12-29T00:12:37;9.13;;;4.53;;
34920;SDS011;21128;50.016;20.002;2022-12-29T00:15:41;7.50;;;4.17;;
34920;SDS011;21128;50.016;20.002;2022-12-29T00:18:28;8.17;;;4.53;;
34920;SDS011;21128;50.016;20.002;2022-12-29T00:21:21;7.87;;;4.17;;
34920;SDS011;21128;50.016;20.002;2022-12-29T00:24:27;8.68;;;3.60;;
34920;SDS011;21128;50.016;20.002;2022-12-29T00:27:22;10.33;;;4.00;;
34920;SDS011;21128;50.016;20.002;2022-12-29T00:30:26;8.27;;;3.80;;
34920;SDS011;21128;50.016;20.002;2022-12-29T00:33:33;6.80;;;4.00;;
34920;SDS011;21128;50.016;20.002;2022-12-29T00:36:39;9.70;;;3.70;;
34920;SDS011;21128;50.016;20.002;2022-12-29T00:39:34;7.83;;;3.83;;
34920;SDS011;21128;50.016;20.002;2022-12-29T00:42:38;6.13;;;3.60;;
34920;SDS011;21128;50.016;20.002;2022-12-29T00:45:43;6.93;;;3.30;;
34920;SDS011;21128;50.016;20.002;2022-12-29T00:48:29;6.10;;;3.43;;
34920;SDS011;21128;50.016;20.002;2022-12-29T00:51:34;9.20;;;3.33;;
34920;SDS011;21128;50.016;20.002;2022-12-29T00:54:28;6.40;;;2.98;;
34920;SDS011;21128;50.016;20.002;2022-12-29T00:57:21;6.13;;;2.90;;
34920;SDS011;21128;50.016;20.002;2022-12-29T01:00:13;5.80;;;2.93;;
34920;SDS011;21128;50.016;20.002;2022-12-29T01:02:59;6.40;;;3.10;;
34920;SDS011;21128;50.016;20.002;2022-12-29T01:05:45;6.77;;;3.30;;
34920;SDS011;21128;50.016;20.002;2022-12-29T01:08:38;3.37;;;2.17;;
34920;SDS011;21128;50.016;20.002;2022-12-29T01:11:30;5.13;;;3.27;;
34920;SDS011;21128;50.016;20.002;2022-12-29T01:14:16;6.45;;;3.15;;
34920;SDS011;21128;50.016;20.002;2022-12-29T01:17:03;9.10;;;3.25;;
34920;SDS011;21128;50.016;20.002;2022-12-29T01:19:50;5.53;;;3.00;;
34920;SDS011;21128;50.016;20.002;2022-12-29T01:22:36;5.30;;;2.60;;
34920;SDS011;21128;50.016;20.002;2022-12-29T01:25:22;4.87;;;2.80;;
34920;SDS011;21128;50.016;20.002;2022-12-29T01:28:08;3.65;;;2.50;;
34920;SDS011;21128;50.016;20.002;2022-12-29T01:30:54;4.03;;;2.90;;
34920;SDS011;21128;50.016;20.002;2022-12-29T01:33:40;6.60;;;2.83;;
34920;SDS011;21128;50.016;20.002;2022-12-29T01:36:34;7.90;;;3.27;;
34920;SDS011;21128;50.016;20.002;2022-12-29T01:39:20;5.70;;;2.80;;
34920;SDS011;21128;50.016;20.002;2022-12-29T01:42:08;6.73;;;3.20;;
34920;SDS011;21128;50.016;20.002;2022-12-29T01:45:11;5.10;;;2.87;;
34920;SDS011;21128;50.016;20.002;2022-12-29T01:47:59;5.60;;;3.13;;
34920;SDS011;21128;50.016;20.002;2022-12-29T01:50:52;9.60;;;2.63;;
34920;SDS011;21128;50.016;20.002;2022-12-29T01:53:38;3.53;;;2.53;;
34920;SDS011;21128;50.016;20.002;2022-12-29T01:56:31;5.37;;;2.60;;
34920;SDS011;21128;50.016;20.002;2022-12-29T01:59:19;6.47;;;2.90;;
34920;SDS011;21128;50.016;20.002;2022-12-29T02:02:10;6.80;;;3.23;;
34920;SDS011;21128;50.016;20.002;2022-12-29T02:04:57;5.23;;;3.00;;
34920;SDS011;21128;50.016;20.002;2022-12-29T02:07:45;6.20;;;3.10;;
34920;SDS011;21128;50.016;20.002;2022-12-29T02:10:40;4.50;;;2.37;;
34920;SDS011;21128;50.016;20.002;2022-12-29T02:13:34;5.27;;;3.10;;
34920;SDS011;21128;50.016;20.002;2022-12-29T02:22:27;3.92;;;2.35;;
34920;SDS011;21128;50.016;20.002;2022-12-29T02:25:54;4.17;;;2.97;;
34920;SDS011;21128;50.016;20.002;2022-12-29T02:31:44;2.90;;;2.10;;
34920;SDS011;21128;50.016;20.002;2022-12-29T02:41:05;4.37;;;2.30;;
34920;SDS011;21128;50.016;20.002;2022-12-29T02:47:09;6.07;;;3.07;;
34920;SDS011;21128;50.016;20.002;2022-12-29T02:50:19;6.10;;;2.87;;
34920;SDS011;21128;50.016;20.002;2022-12-29T02:53:11;6.37;;;2.63;;
34920;SDS011;21128;50.016;20.002;2022-12-29T02:56:00;7.57;;;2.30;;
34920;SDS011;21128;50.016;20.002;2022-12-29T02:58:59;4.87;;;2.73;;
34920;SDS011;21128;50.016;20.002;2022-12-29T03:05:23;5.30;;;2.50;;
34920;SDS011;21128;50.016;20.002;2022-12-29T03:08:55;4.17;;;2.50;;
34920;SDS011;21128;50.016;20.002;2022-12-29T03:11:55;4.73;;;2.70;;
34920;SDS011;21128;50.016;20.002;2022-12-29T03:15:02;6.87;;;2.60;;
34920;SDS011;21128;50.016;20.002;2022-12-29T03:18:14;6.27;;;2.43;;
34920;SDS011;21128;50.016;20.002;2022-12-29T03:21:14;4.40;;;2.23;;
34920;SDS011;21128;50.016;20.002;2022-12-29T03:24:06;3.97;;;2.40;;
34920;SDS011;21128;50.016;20.002;2022-12-29T03:26:53;4.70;;;2.27;;
34920;SDS011;21128;50.016;20.002;2022-12-29T03:29:44;3.93;;;2.20;;
34920;SDS011;21128;50.016;20.002;2022-12-29T03:32:39;4.87;;;2.20;;
34920;SDS011;21128;50.016;20.002;2022-12-29T03:35:31;4.10;;;2.33;;
34920;SDS011;21128;50.016;20.002;2022-12-29T03:38:30;4.63;;;2.33;;
34920;SDS011;21128;50.016;20.002;2022-12-29T03:41:22;6.40;;;2.43;;
34920;SDS011;21128;50.016;20.002;2022-12-29T03:44:11;3.90;;;2.40;;
34920;SDS011;21128;50.016;20.002;2022-12-29T03:47:05;6.10;;;1.90;;
34920;SDS011;21128;50.016;20.002;2022-12-29T03:49:52;5.23;;;2.40;;
34920;SDS011;21128;50.016;20.002;2022-12-29T03:52:38;4.25;;;2.30;;
34920;SDS011;21128;50.016;20.002;2022-12-29T03:55:23;5.67;;;2.33;;
34920;SDS011;21128;50.016;20.002;2022-12-29T03:58:09;8.47;;;2.70;;
34920;SDS011;21128;50.016;20.002;2022-12-29T04:00:56;5.20;;;2.40;;
34920;SDS011;21128;50.016;20.002;2022-12-29T04:03:48;7.90;;;2.60;;
34920;SDS011;21128;50.016;20.002;2022-12-29T04:06:34;4.93;;;3.00;;
34920;SDS011;21128;50.016;20.002;2022-12-29T04:09:39;5.43;;;2.97;;
34920;SDS011;21128;50.016;20.002;2022-12-29T04:12:24;5.87;;;3.33;;
34920;SDS011;21128;50.016;20.002;2022-12-29T04:15:10;6.27;;;2.83;;
34920;SDS011;21128;50.016;20.002;2022-12-29T04:18:02;5.40;;;3.47;;
34920;SDS011;21128;50.016;20.002;2022-12-29T04:20:48;6.67;;;3.43;;
34920;SDS011;21128;50.016;20.002;2022-12-29T04:23:47;9.00;;;3.87;;
34920;SDS011;21128;50.016;20.002;2022-12-29T04:26:33;9.77;;;4.00;;
34920;SDS011;21128;50.016;20.002;2022-12-29T04:29:19;6.23;;;3.50;;
34920;SDS011;21128;50.016;20.002;2022-12-29T04:32:05;9.40;;;5.50;;
34920;SDS011;21128;50.016;20.002;2022-12-29T04:34:50;9.67;;;4.13;;
34920;SDS011;21128;50.016;20.002;2022-12-29T04:37:43;8.20;;;3.83;;
34920;SDS011;21128;50.016;20.002;2022-12-29T04:40:29;8.83;;;3.50;;
34920;SDS011;21128;50.016;20.002;2022-12-29T04:43:15;6.60;;;3.63;;
34920;SDS011;21128;50.016;20.002;2022-12-29T04:46:02;7.53;;;3.53;;
34920;SDS011;21128;50.016;20.002;2022-12-29T04:48:53;6.73;;;3.13;;
34920;SDS011;21128;50.016;20.002;2022-12-29T04:51:39;5.07;;;2.97;;
34920;SDS011;21128;50.016;20.002;2022-12-29T04:54:31;6.87;;;2.47;;
34920;SDS011;21128;50.016;20.002;2022-12-29T04:57:17;8.00;;;2.90;;
34920;SDS011;21128;50.016;20.002;2022-12-29T05:00:03;7.07;;;2.90;;
34920;SDS011;21128;50.016;20.002;2022-12-29T05:02:50;5.53;;;2.80;;
34920;SDS011;21128;50.016;20.002;2022-12-29T05:05:37;4.33;;;2.60;;
34920;SDS011;21128;50.016;20.002;2022-12-29T05:08:23;5.10;;;3.10;;
34920;SDS011;21128;50.016;20.002;2022-12-29T05:11:15;3.70;;;2.25;;
34920;SDS011;21128;50.016;20.002;2022-12-29T05:14:01;6.70;;;2.83;;
34920;SDS011;21128;50.016;20.002;2022-12-29T05:16:53;5.13;;;2.73;;
34920;SDS011;21128;50.016;20.002;2022-12-29T05:19:38;6.17;;;2.70;;
34920;SDS011;21128;50.016;20.002;2022-12-29T05:22:24;5.23;;;2.30;;
34920;SDS011;21128;50.016;20.002;2022-12-29T05:25:10;5.50;;;2.57;;
34920;SDS011;21128;50.016;20.002;2022-12-29T05:27:56;7.50;;;3.03;;
34920;SDS011;21128;50.016;20.002;2022-12-29T05:30:41;6.80;;;3.10;;
34920;SDS011;21128;50.016;20.002;2022-12-29T05:33:27;4.60;;;2.53;;
34920;SDS011;21128;50.016;20.002;2022-12-29T05:36:12;3.93;;;2.40;;
34920;SDS011;21128;50.016;20.002;2022-12-29T05:38:58;7.13;;;2.70;;
34920;SDS011;21128;50.016;20.002;2022-12-29T05:41:44;8.60;;;2.73;;
34920;SDS011;21128;50.016;20.002;2022-12-29T05:44:29;5.67;;;2.47;;
34920;SDS011;21128;50.016;20.002;2022-12-29T05:47:15;4.63;;;2.50;;
34920;SDS011;21128;50.016;20.002;2022-12-29T05:50:00;6.30;;;2.83;;
34920;SDS011;21128;50.016;20.002;2022-12-29T05:52:53;5.03;;;2.33;;
34920;SDS011;21128;50.016;20.002;2022-12-29T05:55:39;5.43;;;2.47;;
34920;SDS011;21128;50.016;20.002;2022-12-29T05:58:25;6.75;;;2.60;;
34920;SDS011;21128;50.016;20.002;2022-12-29T06:01:17;4.73;;;2.67;;
34920;SDS011;21128;50.016;20.002;2022-12-29T06:04:03;5.63;;;2.53;;
34920;SDS011;21128;50.016;20.002;2022-12-29T06:06:49;7.27;;;2.67;;
34920;SDS011;21128;50.016;20.002;2022-12-29T06:09:55;3.70;;;2.70;;
34920;SDS011;21128;50.016;20.002;2022-12-29T06:12:40;6.30;;;2.70;;
34920;SDS011;21128;50.016;20.002;2022-12-29T06:15:33;5.70;;;2.50;;
34920;SDS011;21128;50.016;20.002;2022-12-29T06:18:25;5.93;;;3.07;;
34920;SDS011;21128;50.016;20.002;2022-12-29T06:21:11;4.20;;;2.90;;
34920;SDS011;21128;50.016;20.002;2022-12-29T06:23:56;11.77;;;3.07;;
34920;SDS011;21128;50.016;20.002;2022-12-29T06:26:42;5.70;;;3.03;;
34920;SDS011;21128;50.016;20.002;2022-12-29T06:29:28;6.30;;;3.40;;
34920;SDS011;21128;50.016;20.002;2022-12-29T06:32:13;6.20;;;3.20;;
34920;SDS011;21128;50.016;20.002;2022-12-29T06:35:06;4.75;;;2.67;;
34920;SDS011;21128;50.016;20.002;2022-12-29T06:37:52;7.27;;;3.60;;
34920;SDS011;21128;50.016;20.002;2022-12-29T06:40:38;6.05;;;3.40;;
34920;SDS011;21128;50.016;20.002;2022-12-29T06:43:24;7.43;;;3.40;;
34920;SDS011;21128;50.016;20.002;2022-12-29T06:46:10;8.15;;;3.75;;
34920;SDS011;21128;50.016;20.002;2022-12-29T06:48:55;8.63;;;3.90;;
34920;SDS011;21128;50.016;20.002;2022-12-29T06:51:41;5.57;;;3.30;;
34920;SDS011;21128;50.016;20.002;2022-12-29T06:54:26;9.70;;;3.90;;
34920;SDS011;21128;50.016;20.002;2022-12-29T06:57:12;8.70;;;4.03;;
34920;SDS011;21128;50.016;20.002;2022-12-29T07:00:04;15.13;;;4.07;;
34920;SDS011;21128;50.016;20.002;2022-12-29T07:02:51;10.13;;;3.87;;
34920;SDS011;21128;50.016;20.002;2022-12-29T07:05:37;9.27;;;3.70;;
34920;SDS011;21128;50.016;20.002;2022-12-29T07:08:29;11.73;;;3.90;;
34920;SDS011;21128;50.016;20.002;2022-12-29T07:11:15;7.60;;;3.93;;
34920;SDS011;21128;50.016;20.002;2022-12-29T07:14:01;9.17;;;4.03;;
34920;SDS011;21128;50.016;20.002;2022-12-29T07:16:47;9.40;;;3.93;;
34920;SDS011;21128;50.016;20.002;2022-12-29T07:19:40;10.07;;;4.90;;
34920;SDS011;21128;50.016;20.002;2022-12-29T07:22:26;6.90;;;3.60;;
34920;SDS011;21128;50.016;20.002;2022-12-29T07:25:12;6.80;;;3.70;;
34920;SDS011;21128;50.016;20.002;2022-12-29T07:27:57;7.85;;;4.30;;
34920;SDS011;21128;50.016;20.002;2022-12-29T07:30:45;8.40;;;3.23;;
34920;SDS011;21128;50.016;20.002;2022-12-29T07:33:31;6.03;;;3.17;;
34920;SDS011;21128;50.016;20.002;2022-12-29T07:36:18;7.07;;;3.63;;
34920;SDS011;21128;50.016;20.002;2022-12-29T07:39:03;13.27;;;3.87;;
34920;SDS011;21128;50.016;20.002;2022-12-29T07:41:49;9.30;;;4.15;;
34920;SDS011;21128;50.016;20.002;2022-12-29T07:44:34;9.73;;;4.23;;
34920;SDS011;21128;50.016;20.002;2022-12-29T07:47:21;16.87;;;5.70;;
34920;SDS011;21128;50.016;20.002;2022-12-29T07:50:07;12.20;;;4.13;;
34920;SDS011;21128;50.016;20.002;2022-12-29T07:52:53;17.67;;;5.33;;
34920;SDS011;21128;50.016;20.002;2022-12-29T07:55:38;10.17;;;5.20;;
34920;SDS011;21128;50.016;20.002;2022-12-29T07:58:30;11.43;;;4.50;;
34920;SDS011;21128;50.016;20.002;2022-12-29T08:01:16;15.67;;;4.50;;
34920;SDS011;21128;50.016;20.002;2022-12-29T08:04:01;9.40;;;3.95;;
34920;SDS011;21128;50.016;20.002;2022-12-29T08:06:48;15.47;;;4.67;;
34920;SDS011;21128;50.016;20.002;2022-12-29T08:09:47;14.40;;;4.90;;
34920;SDS011;21128;50.016;20.002;2022-12-29T08:12:39;13.30;;;4.97;;
34920;SDS011;21128;50.016;20.002;2022-12-29T08:15:25;10.40;;;4.45;;
34920;SDS011;21128;50.016;20.002;2022-12-29T08:18:11;14.30;;;4.73;;
34920;SDS011;21128;50.016;20.002;2022-12-29T08:21:01;14.73;;;5.43;;
34920;SDS011;21128;50.016;20.002;2022-12-29T08:23:50;11.88;;;5.47;;
34920;SDS011;21128;50.016;20.002;2022-12-29T08:26:35;12.97;;;5.07;;
34920;SDS011;21128;50.016;20.002;2022-12-29T08:29:27;8.87;;;4.77;;
34920;SDS011;21128;50.016;20.002;2022-12-29T08:32:13;11.27;;;4.93;;
34920;SDS011;21128;50.016;20.002;2022-12-29T08:34:59;14.17;;;5.30;;
34920;SDS011;21128;50.016;20.002;2022-12-29T08:37:46;12.57;;;4.07;;
34920;SDS011;21128;50.016;20.002;2022-12-29T08:40:37;9.80;;;4.33;;
34920;SDS011;21128;50.016;20.002;2022-12-29T08:43:23;6.90;;;3.63;;
34920;SDS011;21128;50.016;20.002;2022-12-29T08:46:09;11.10;;;5.03;;
34920;SDS011;21128;50.016;20.002;2022-12-29T08:49:01;10.60;;;5.10;;
34920;SDS011;21128;50.016;20.002;2022-12-29T08:51:47;12.43;;;4.03;;
34920;SDS011;21128;50.016;20.002;2022-12-29T08:54:33;9.20;;;4.10;;
34920;SDS011;21128;50.016;20.002;2022-12-29T08:57:18;13.23;;;4.90;;
34920;SDS011;21128;50.016;20.002;2022-12-29T09:00:04;7.90;;;4.25;;
34920;SDS011;21128;50.016;20.002;2022-12-29T09:02:51;10.33;;;4.40;;
34920;SDS011;21128;50.016;20.002;2022-12-29T09:05:37;10.43;;;4.70;;
34920;SDS011;21128;50.016;20.002;2022-12-29T09:08:23;6.73;;;4.27;;
34920;SDS011;21128;50.016;20.002;2022-12-29T09:11:20;7.50;;;4.37;;
34920;SDS011;21128;50.016;20.002;2022-12-29T09:14:13;15.67;;;4.53;;
34920;SDS011;21128;50.016;20.002;2022-12-29T09:16:59;12.97;;;4.70;;
34920;SDS011;21128;50.016;20.002;2022-12-29T09:20:04;16.25;;;5.20;;
34920;SDS011;21128;50.016;20.002;2022-12-29T09:22:51;6.50;;;3.90;;
34920;SDS011;21128;50.016;20.002;2022-12-29T09:25:36;7.40;;;3.93;;
34920;SDS011;21128;50.016;20.002;2022-12-29T09:28:22;8.33;;;4.47;;
34920;SDS011;21128;50.016;20.002;2022-12-29T09:31:15;7.40;;;4.50;;
34920;SDS011;21128;50.016;20.002;2022-12-29T09:34:00;9.73;;;4.07;;
34920;SDS011;21128;50.016;20.002;2022-12-29T09:36:46;8.17;;;3.97;;
34920;SDS011;21128;50.016;20.002;2022-12-29T09:39:31;8.23;;;4.00;;
34920;SDS011;21128;50.016;20.002;2022-12-29T09:42:45;9.25;;;3.90;;
34920;SDS011;21128;50.016;20.002;2022-12-29T09:48:41;8.40;;;3.73;;
34920;SDS011;21128;50.016;20.002;2022-12-29T09:51:33;9.77;;;3.83;;
34920;SDS011;21128;50.016;20.002;2022-12-29T09:54:32;6.33;;;3.93;;
34920;SDS011;21128;50.016;20.002;2022-12-29T09:57:43;7.23;;;4.10;;
34920;SDS011;21128;50.016;20.002;2022-12-29T10:03:47;6.85;;;3.60;;
34920;SDS011;21128;50.016;20.002;2022-12-29T10:06:43;6.43;;;3.87;;
34920;SDS011;21128;50.016;20.002;2022-12-29T10:09:56;8.70;;;4.20;;
34920;SDS011;21128;50.016;20.002;2022-12-29T10:13:25;8.17;;;3.90;;
34920;SDS011;21128;50.016;20.002;2022-12-29T10:19:34;10.60;;;4.77;;
34920;SDS011;21128;50.016;20.002;2022-12-29T10:25:39;19.20;;;4.70;;
34920;SDS011;21128;50.016;20.002;2022-12-29T10:28:33;9.60;;;4.43;;
34920;SDS011;21128;50.016;20.002;2022-12-29T10:31:34;10.67;;;5.27;;
34920;SDS011;21128;50.016;20.002;2022-12-29T10:34:29;15.57;;;5.00;;
34920;SDS011;21128;50.016;20.002;2022-12-29T10:40:43;9.90;;;4.83;;
34920;SDS011;21128;50.016;20.002;2022-12-29T10:43:45;10.20;;;5.07;;
34920;SDS011;21128;50.016;20.002;2022-12-29T10:46:43;8.85;;;4.95;;
34920;SDS011;21128;50.016;20.002;2022-12-29T10:49:36;11.70;;;4.97;;
34920;SDS011;21128;50.016;20.002;2022-12-29T10:52:27;22.87;;;5.12;;
34920;SDS011;21128;50.016;20.002;2022-12-29T10:55:18;15.13;;;5.33;;
34920;SDS011;21128;50.016;20.002;2022-12-29T10:58:10;9.60;;;4.67;;
34920;SDS011;21128;50.016;20.002;2022-12-29T11:00:58;9.53;;;4.87;;
34920;SDS011;21128;50.016;20.002;2022-12-29T11:03:50;12.77;;;5.03;;
34920;SDS011;21128;50.016;20.002;2022-12-29T11:07:06;19.60;;;4.70;;
34920;SDS011;21128;50.016;20.002;2022-12-29T11:16:04;9.95;;;4.35;;
34920;SDS011;21128;50.016;20.002;2022-12-29T11:18:50;9.53;;;4.77;;
34920;SDS011;21128;50.016;20.002;2022-12-29T11:21:37;11.13;;;4.50;;
34920;SDS011;21128;50.016;20.002;2022-12-29T11:24:28;10.47;;;4.73;;
34920;SDS011;21128;50.016;20.002;2022-12-29T11:27:22;9.97;;;4.00;;
34920;SDS011;21128;50.016;20.002;2022-12-29T11:30:28;10.00;;;4.30;;
34920;SDS011;21128;50.016;20.002;2022-12-29T11:33:22;8.27;;;4.77;;
34920;SDS011;21128;50.016;20.002;2022-12-29T11:36:16;10.50;;;3.80;;
34920;SDS011;21128;50.016;20.002;2022-12-29T11:39:04;8.13;;;3.90;;
34920;SDS011;21128;50.016;20.002;2022-12-29T11:41:51;7.43;;;4.03;;
34920;SDS011;21128;50.016;20.002;2022-12-29T11:44:41;9.63;;;4.63;;
34920;SDS011;21128;50.016;20.002;2022-12-29T11:47:30;8.17;;;4.40;;
34920;SDS011;21128;50.016;20.002;2022-12-29T11:50:18;8.50;;;4.60;;
34920;SDS011;21128;50.016;20.002;2022-12-29T11:56:06;8.33;;;4.53;;
34920;SDS011;21128;50.016;20.002;2022-12-29T11:58:55;10.10;;;4.57;;
34920;SDS011;21128;50.016;20.002;2022-12-29T12:01:41;9.43;;;4.70;;
34920;SDS011;21128;50.016;20.002;2022-12-29T12:04:30;10.13;;;4.40;;
34920;SDS011;21128;50.016;20.002;2022-12-29T12:07:38;9.27;;;4.00;;
34920;SDS011;21128;50.016;20.002;2022-12-29T12:10:54;4.25;;;2.87;;
34920;SDS011;21128;50.016;20.002;2022-12-29T12:17:10;5.97;;;3.80;;
34920;SDS011;21128;50.016;20.002;2022-12-29T12:20:02;9.15;;;3.90;;
34920;SDS011;21128;50.016;20.002;2022-12-29T12:26:15;4.97;;;3.07;;
34920;SDS011;21128;50.016;20.002;2022-12-29T12:29:10;5.40;;;3.13;;
34920;SDS011;21128;50.016;20.002;2022-12-29T12:32:11;6.47;;;3.60;;
34920;SDS011;21128;50.016;20.002;2022-12-29T12:35:01;4.60;;;3.17;;
34920;SDS011;21128;50.016;20.002;2022-12-29T12:37:50;6.00;;;3.67;;
34920;SDS011;21128;50.016;20.002;2022-12-29T12:41:06;5.37;;;3.30;;
34920;SDS011;21128;50.016;20.002;2022-12-29T12:44:15;7.20;;;3.43;;
34920;SDS011;21128;50.016;20.002;2022-12-29T12:50:30;8.57;;;3.77;;
34920;SDS011;21128;50.016;20.002;2022-12-29T12:53:31;7.47;;;3.50;;
34920;SDS011;21128;50.016;20.002;2022-12-29T13:02:40;6.10;;;3.87;;
34920;SDS011;21128;50.016;20.002;2022-12-29T13:09:10;6.40;;;3.50;;
34920;SDS011;21128;50.016;20.002;2022-12-29T13:12:18;6.97;;;3.53;;
34920;SDS011;21128;50.016;20.002;2022-12-29T13:21:55;6.10;;;3.40;;
34920;SDS011;21128;50.016;20.002;2022-12-29T13:27:59;9.40;;;4.00;;
34920;SDS011;21128;50.016;20.002;2022-12-29T13:37:04;7.13;;;3.40;;
34920;SDS011;21128;50.016;20.002;2022-12-29T13:39:58;7.27;;;3.73;;
34920;SDS011;21128;50.016;20.002;2022-12-29T13:42:48;7.33;;;3.90;;
34920;SDS011;21128;50.016;20.002;2022-12-29T13:45:34;9.50;;;3.70;;
34920;SDS011;21128;50.016;20.002;2022-12-29T13:48:22;7.10;;;3.65;;
34920;SDS011;21128;50.016;20.002;2022-12-29T13:51:16;8.13;;;3.97;;
34920;SDS011;21128;50.016;20.002;2022-12-29T13:54:12;5.97;;;3.90;;
34920;SDS011;21128;50.016;20.002;2022-12-29T14:06:16;6.47;;;3.90;;
34920;SDS011;21128;50.016;20.002;2022-12-29T14:09:47;6.40;;;3.87;;
34920;SDS011;21128;50.016;20.002;2022-12-29T14:12:42;12.67;;;4.40;;
34920;SDS011;21128;50.016;20.002;2022-12-29T14:15:28;10.43;;;4.20;;
34920;SDS011;21128;50.016;20.002;2022-12-29T14:18:21;9.03;;;4.03;;
34920;SDS011;21128;50.016;20.002;2022-12-29T14:30:06;7.83;;;3.47;;
34920;SDS011;21128;50.016;20.002;2022-12-29T14:33:36;11.93;;;4.40;;
34920;SDS011;21128;50.016;20.002;2022-12-29T14:36:25;7.13;;;4.23;;
34920;SDS011;21128;50.016;20.002;2022-12-29T14:39:38;6.93;;;4.30;;
34920;SDS011;21128;50.016;20.002;2022-12-29T14:42:29;8.13;;;4.27;;
34920;SDS011;21128;50.016;20.002;2022-12-29T14:51:29;13.57;;;6.83;;
34920;SDS011;21128;50.016;20.002;2022-12-29T14:57:32;10.40;;;4.50;;
34920;SDS011;21128;50.016;20.002;2022-12-29T15:00:26;8.40;;;4.50;;
34920;SDS011;21128;50.016;20.002;2022-12-29T15:03:24;12.83;;;5.27;;
34920;SDS011;21128;50.016;20.002;2022-12-29T15:06:29;11.83;;;6.53;;
34920;SDS011;21128;50.016;20.002;2022-12-29T15:09:24;16.80;;;6.80;;
34920;SDS011;21128;50.016;20.002;2022-12-29T15:15:27;17.63;;;9.27;;
34920;SDS011;21128;50.016;20.002;2022-12-29T15:21:30;18.20;;;9.35;;
34920;SDS011;21128;50.016;20.002;2022-12-29T15:24:18;15.73;;;8.70;;
34920;SDS011;21128;50.016;20.002;2022-12-29T15:27:04;17.80;;;9.60;;
34920;SDS011;21128;50.016;20.002;2022-12-29T15:29:58;19.80;;;9.87;;
34920;SDS011;21128;50.016;20.002;2022-12-29T15:32:53;21.20;;;9.60;;
34920;SDS011;21128;50.016;20.002;2022-12-29T15:35:49;17.83;;;9.37;;
34920;SDS011;21128;50.016;20.002;2022-12-29T15:38:39;18.83;;;9.03;;
34920;SDS011;21128;50.016;20.002;2022-12-29T15:41:43;15.23;;;8.40;;
34920;SDS011;21128;50.016;20.002;2022-12-29T15:44:45;11.38;;;7.45;;
34920;SDS011;21128;50.016;20.002;2022-12-29T15:47:31;13.43;;;7.70;;
34920;SDS011;21128;50.016;20.002;2022-12-29T15:50:34;12.27;;;7.50;;
34920;SDS011;21128;50.016;20.002;2022-12-29T15:53:23;15.33;;;7.67;;
34920;SDS011;21128;50.016;20.002;2022-12-29T15:56:14;13.23;;;8.27;;
34920;SDS011;21128;50.016;20.002;2022-12-29T15:59:00;13.80;;;8.43;;
34920;SDS011;21128;50.016;20.002;2022-12-29T16:01:46;15.60;;;8.60;;
34920;SDS011;21128;50.016;20.002;2022-12-29T16:04:32;18.87;;;9.40;;
34920;SDS011;21128;50.016;20.002;2022-12-29T16:07:26;19.00;;;9.00;;
34920;SDS011;21128;50.016;20.002;2022-12-29T16:10:38;15.20;;;8.97;;
34920;SDS011;21128;50.016;20.002;2022-12-29T16:13:38;20.57;;;9.50;;
34920;SDS011;21128;50.016;20.002;2022-12-29T16:16:27;18.83;;;9.77;;
34920;SDS011;21128;50.016;20.002;2022-12-29T16:22:45;13.93;;;8.90;;
34920;SDS011;21128;50.016;20.002;2022-12-29T16:25:38;15.45;;;9.20;;
34920;SDS011;21128;50.016;20.002;2022-12-29T16:28:36;18.27;;;9.23;;
34920;SDS011;21128;50.016;20.002;2022-12-29T16:31:33;21.10;;;9.07;;
34920;SDS011;21128;50.016;20.002;2022-12-29T16:37:31;21.77;;;10.00;;
34920;SDS011;21128;50.016;20.002;2022-12-29T16:40:29;22.37;;;10.57;;
34920;SDS011;21128;50.016;20.002;2022-12-29T16:43:23;19.73;;;10.17;;
34920;SDS011;21128;50.016;20.002;2022-12-29T16:46:27;16.47;;;8.77;;
34920;SDS011;21128;50.016;20.002;2022-12-29T16:49:15;18.77;;;8.47;;
34920;SDS011;21128;50.016;20.002;2022-12-29T16:55:19;15.57;;;8.07;;
34920;SDS011;21128;50.016;20.002;2022-12-29T16:58:05;14.67;;;8.80;;
34920;SDS011;21128;50.016;20.002;2022-12-29T17:00:54;12.93;;;7.63;;
34920;SDS011;21128;50.016;20.002;2022-12-29T17:03:42;12.53;;;7.13;;
34920;SDS011;21128;50.016;20.002;2022-12-29T17:06:31;15.90;;;8.43;;
34920;SDS011;21128;50.016;20.002;2022-12-29T17:09:25;14.80;;;7.47;;
34920;SDS011;21128;50.016;20.002;2022-12-29T17:12:28;12.97;;;7.70;;
34920;SDS011;21128;50.016;20.002;2022-12-29T17:15:25;15.95;;;8.35;;
34920;SDS011;21128;50.016;20.002;2022-12-29T17:18:17;12.40;;;7.73;;
34920;SDS011;21128;50.016;20.002;2022-12-29T17:21:03;15.10;;;8.20;;
34920;SDS011;21128;50.016;20.002;2022-12-29T17:23:48;17.85;;;9.85;;
34920;SDS011;21128;50.016;20.002;2022-12-29T17:26:34;13.40;;;7.63;;
34920;SDS011;21128;50.016;20.002;2022-12-29T17:32:11;14.17;;;8.93;;
34920;SDS011;21128;50.016;20.002;2022-12-29T17:34:59;13.43;;;8.27;;
34920;SDS011;21128;50.016;20.002;2022-12-29T17:37:44;16.30;;;8.73;;
34920;SDS011;21128;50.016;20.002;2022-12-29T17:40:36;19.77;;;10.20;;
34920;SDS011;21128;50.016;20.002;2022-12-29T17:43:28;16.53;;;9.43;;
34920;SDS011;21128;50.016;20.002;2022-12-29T17:46:14;15.67;;;9.13;;
34920;SDS011;21128;50.016;20.002;2022-12-29T17:49:00;16.93;;;9.70;;
34920;SDS011;21128;50.016;20.002;2022-12-29T17:51:46;17.45;;;10.00;;
34920;SDS011;21128;50.016;20.002;2022-12-29T17:54:31;17.13;;;8.87;;
34920;SDS011;21128;50.016;20.002;2022-12-29T17:57:19;15.23;;;9.00;;
34920;SDS011;21128;50.016;20.002;2022-12-29T18:00:07;14.13;;;9.33;;
34920;SDS011;21128;50.016;20.002;2022-12-29T18:02:59;15.50;;;9.40;;
34920;SDS011;21128;50.016;20.002;2022-12-29T18:05:44;15.37;;;9.30;;
34920;SDS011;21128;50.016;20.002;2022-12-29T18:08:38;18.40;;;10.10;;
34920;SDS011;21128;50.016;20.002;2022-12-29T18:11:31;16.67;;;8.83;;
34920;SDS011;21128;50.016;20.002;2022-12-29T18:14:17;16.25;;;9.80;;
34920;SDS011;21128;50.016;20.002;2022-12-29T18:17:07;14.30;;;9.37;;
34920;SDS011;21128;50.016;20.002;2022-12-29T18:19:57;17.87;;;9.83;;
34920;SDS011;21128;50.016;20.002;2022-12-29T18:22:42;15.87;;;8.97;;
34920;SDS011;21128;50.016;20.002;2022-12-29T18:25:48;16.17;;;8.90;;
34920;SDS011;21128;50.016;20.002;2022-12-29T18:28:41;14.97;;;8.10;;
34920;SDS011;21128;50.016;20.002;2022-12-29T18:31:28;15.67;;;7.60;;
34920;SDS011;21128;50.016;20.002;2022-12-29T18:34:16;15.20;;;8.60;;
34920;SDS011;21128;50.016;20.002;2022-12-29T18:37:10;14.73;;;8.10;;
34920;SDS011;21128;50.016;20.002;2022-12-29T18:39:56;16.37;;;8.57;;
34920;SDS011;21128;50.016;20.002;2022-12-29T18:42:44;13.63;;;7.63;;
34920;SDS011;21128;50.016;20.002;2022-12-29T18:45:30;13.20;;;7.90;;
34920;SDS011;21128;50.016;20.002;2022-12-29T18:48:19;13.90;;;7.50;;
34920;SDS011;21128;50.016;20.002;2022-12-29T18:51:05;11.93;;;7.90;;
34920;SDS011;21128;50.016;20.002;2022-12-29T18:53:59;14.43;;;8.63;;
34920;SDS011;21128;50.016;20.002;2022-12-29T18:56:45;14.63;;;8.53;;
34920;SDS011;21128;50.016;20.002;2022-12-29T18:59:30;14.55;;;8.30;;
34920;SDS011;21128;50.016;20.002;2022-12-29T19:02:16;17.47;;;9.20;;